createdAt,value
2023-04-28T00:00:32.737Z,12.07
2023-04-28T00:03:00.233Z,10.93
2023-04-28T00:05:27.303Z,12.20
2023-04-28T00:07:54.263Z,11.77
2023-04-28T00:10:21.200Z,9.93
2023-04-28T00:12:47.962Z,10.65
2023-04-28T00:15:15.417Z,10.15
2023-04-28T00:17:42.334Z,12.05
2023-04-28T00:20:09.764Z,11.53
2023-04-28T00:22:36.797Z,12.05
2023-04-28T00:25:03.959Z,12.10
2023-04-28T00:27:30.771Z,11.65
2023-04-28T00:29:57.709Z,10.52
2023-04-28T00:32:24.599Z,11.57
2023-04-28T00:34:51.822Z,11.68
2023-04-28T00:37:18.658Z,10.30
2023-04-28T00:39:48.261Z,10.68
2023-04-28T00:42:16.015Z,10.73
2023-04-28T00:44:42.925Z,11.23
2023-04-28T00:47:10.248Z,12.00
2023-04-28T00:49:38.079Z,11.10
2023-04-28T00:52:07.048Z,11.47
2023-04-28T00:54:34.950Z,10.13
2023-04-28T00:57:05.445Z,11.95
2023-04-28T00:59:32.249Z,11.88
2023-04-28T01:02:00.208Z,7.73
2023-04-28T01:04:29.562Z,11.97
2023-04-28T01:06:57.068Z,10.77
2023-04-28T01:09:23.899Z,11.73
2023-04-28T01:12:10.619Z,10.95
2023-04-28T01:14:43.293Z,11.53
2023-04-28T01:17:10.909Z,10.70
2023-04-28T01:19:38.143Z,10.17
2023-04-28T01:22:05.326Z,10.27
2023-04-28T01:24:32.374Z,9.60
2023-04-28T01:27:03.681Z,10.97
2023-04-28T01:29:30.463Z,8.05
2023-04-28T01:31:57.373Z,10.10
2023-04-28T01:34:24.357Z,9.53
2023-04-28T01:36:51.060Z,11.17
2023-04-28T01:39:18.000Z,10.52
2023-04-28T01:41:45.104Z,8.80
2023-04-28T01:44:13.203Z,10.40
2023-04-28T01:46:41.092Z,10.05
2023-04-28T01:49:08.068Z,10.23
2023-04-28T01:51:34.826Z,9.52
2023-04-28T01:54:02.394Z,10.83
2023-04-28T01:56:30.121Z,9.37
2023-04-28T01:58:58.155Z,7.93
2023-04-28T02:01:25.465Z,9.43
2023-04-28T02:03:52.729Z,9.57
2023-04-28T02:06:19.770Z,10.00
2023-04-28T02:09:05.434Z,7.43
2023-04-28T02:11:33.747Z,10.23
2023-04-28T02:14:19.391Z,11.07
2023-04-28T02:16:46.324Z,10.53
2023-04-28T02:19:13.180Z,10.63
2023-04-28T02:21:41.737Z,12.10
2023-04-28T02:24:08.594Z,10.77
2023-04-28T02:26:35.735Z,9.57
2023-04-28T02:29:04.393Z,9.93
2023-04-28T02:31:33.130Z,10.60
2023-04-28T02:34:00.040Z,11.87
2023-04-28T02:36:27.898Z,8.75
2023-04-28T02:38:54.771Z,10.90
2023-04-28T02:41:21.670Z,10.25
2023-04-28T02:43:48.415Z,11.97
2023-04-28T02:46:15.713Z,11.82
2023-04-28T02:48:42.540Z,12.65
2023-04-28T02:51:11.150Z,11.60
2023-04-28T02:53:38.515Z,12.48
2023-04-28T02:56:05.657Z,12.68
2023-04-28T02:58:33.781Z,12.63
2023-04-28T03:01:01.288Z,11.87
2023-04-28T03:03:28.529Z,14.20
2023-04-28T03:05:57.043Z,12.88
2023-04-28T03:08:24.187Z,14.07
2023-04-28T03:10:51.105Z,13.38
2023-04-28T03:13:17.886Z,12.53
2023-04-28T03:15:44.835Z,13.63
2023-04-28T03:18:12.285Z,13.17
2023-04-28T03:20:39.218Z,13.60
2023-04-28T03:23:06.032Z,14.33
2023-04-28T03:25:51.466Z,13.82
2023-04-28T03:28:18.299Z,13.90
2023-04-28T03:30:45.046Z,13.82
2023-04-28T03:33:30.713Z,13.80
2023-04-28T03:35:59.024Z,13.70
2023-04-28T03:38:26.056Z,13.20
2023-04-28T03:40:53.689Z,12.98
2023-04-28T03:43:58.732Z,13.63
2023-04-28T03:46:53.484Z,13.68
2023-04-28T03:49:20.522Z,14.00
2023-04-28T03:51:47.986Z,14.13
2023-04-28T03:54:15.617Z,14.27
2023-04-28T03:56:42.709Z,15.27
2023-04-28T03:59:11.826Z,14.73
2023-04-28T04:01:38.733Z,15.33
2023-04-28T04:04:05.979Z,15.23
2023-04-28T04:06:34.034Z,12.57
2023-04-28T04:09:19.615Z,15.95
2023-04-28T04:11:46.650Z,15.57
2023-04-28T04:14:13.631Z,14.93
2023-04-28T04:16:41.262Z,16.83
2023-04-28T04:19:08.177Z,15.43
2023-04-28T04:21:42.006Z,17.20
2023-04-28T04:24:08.890Z,16.63
2023-04-28T04:26:35.944Z,14.48
2023-04-28T04:29:13.577Z,16.83
2023-04-28T04:31:41.112Z,15.68
2023-04-28T04:34:07.981Z,17.92
2023-04-28T04:36:34.782Z,17.23
2023-04-28T04:39:01.668Z,17.07
2023-04-28T04:41:28.527Z,18.30
2023-04-28T04:44:14.177Z,18.27
2023-04-28T04:46:45.077Z,20.90
2023-04-28T04:49:12.110Z,18.33
2023-04-28T04:51:38.856Z,17.73
2023-04-28T04:54:06.518Z,18.05
2023-04-28T04:56:33.601Z,17.77
2023-04-28T04:59:01.006Z,19.17
2023-04-28T05:04:24.295Z,21.25
2023-04-28T05:06:51.716Z,17.80
2023-04-28T05:09:19.573Z,18.25
2023-04-28T05:11:46.358Z,19.52
2023-04-28T05:14:13.243Z,17.33
2023-04-28T05:16:42.195Z,18.60
2023-04-28T05:19:16.450Z,20.60
2023-04-28T05:21:43.515Z,19.65
2023-04-28T05:24:10.266Z,20.33
2023-04-28T05:26:37.114Z,22.20
2023-04-28T05:29:08.320Z,20.90
2023-04-28T05:31:35.388Z,21.75
2023-04-28T05:34:03.214Z,19.50
2023-04-28T05:36:30.307Z,18.40
2023-04-28T05:38:57.260Z,21.08
2023-04-28T05:41:24.208Z,20.33
2023-04-28T05:43:51.379Z,19.42
2023-04-28T05:46:30.204Z,18.75
2023-04-28T05:48:59.483Z,20.58
2023-04-28T05:51:28.864Z,19.95
2023-04-28T05:53:56.803Z,19.23
2023-04-28T05:56:23.840Z,22.55
2023-04-28T06:01:36.474Z,19.92
2023-04-28T06:04:03.583Z,19.35
2023-04-28T06:06:31.660Z,18.85
2023-04-28T06:08:59.489Z,19.48
2023-04-28T06:11:26.349Z,19.40
2023-04-28T06:13:53.101Z,20.17
2023-04-28T06:16:20.178Z,21.38
2023-04-28T06:19:06.034Z,20.27
2023-04-28T06:21:33.754Z,23.05
2023-04-28T06:24:02.002Z,19.58
2023-04-28T06:26:29.413Z,22.10
2023-04-28T06:28:56.537Z,22.20
2023-04-28T06:31:23.462Z,22.55
2023-04-28T06:33:52.825Z,23.13
2023-04-28T06:36:19.873Z,19.48
2023-04-28T06:38:46.971Z,21.70
2023-04-28T06:41:13.784Z,21.95
2023-04-28T06:44:02.367Z,23.77
2023-04-28T06:46:30.416Z,21.92
2023-04-28T06:48:57.829Z,21.13
2023-04-28T06:51:24.938Z,23.38
2023-04-28T06:53:53.475Z,20.63
2023-04-28T06:56:20.485Z,20.00
2023-04-28T06:58:48.344Z,20.92
2023-04-28T07:01:15.156Z,22.75
2023-04-28T07:03:42.088Z,22.70
2023-04-28T07:06:09.012Z,22.20
2023-04-28T07:08:36.992Z,20.42
2023-04-28T07:11:04.942Z,22.27
2023-04-28T07:13:32.752Z,19.52
2023-04-28T07:15:59.863Z,23.00
2023-04-28T07:18:26.805Z,24.15
2023-04-28T07:20:54.134Z,23.02
2023-04-28T07:23:21.081Z,24.13
2023-04-28T07:25:47.850Z,22.30
2023-04-28T07:28:14.788Z,19.83
2023-04-28T07:30:41.878Z,22.13
2023-04-28T07:33:08.837Z,24.52
2023-04-28T07:35:35.716Z,19.42
2023-04-28T07:40:47.363Z,21.42
2023-04-28T07:43:14.644Z,21.05
2023-04-28T07:45:41.961Z,21.45
2023-04-28T07:48:08.795Z,21.10
2023-04-28T07:50:35.587Z,19.77
2023-04-28T07:53:02.362Z,21.83
2023-04-28T07:55:29.338Z,22.50
2023-04-28T07:57:57.102Z,23.25
2023-04-28T08:00:24.036Z,25.17
2023-04-28T08:02:51.061Z,24.50
2023-04-28T08:05:18.334Z,22.90
2023-04-28T08:07:45.321Z,21.60
2023-04-28T08:10:30.639Z,23.73
2023-04-28T08:12:57.524Z,20.90
2023-04-28T08:15:24.633Z,22.35
2023-04-28T08:17:52.089Z,21.67
2023-04-28T08:20:21.642Z,23.88
2023-04-28T08:22:50.246Z,23.23
2023-04-28T08:25:18.513Z,23.85
2023-04-28T08:27:45.442Z,26.02
2023-04-28T08:30:12.325Z,22.98
2023-04-28T08:32:39.235Z,24.73
2023-04-28T08:35:06.643Z,22.80
2023-04-28T08:37:33.610Z,23.35
2023-04-28T08:40:07.724Z,23.25
2023-04-28T08:42:36.023Z,23.33
2023-04-28T08:45:04.720Z,23.65
2023-04-28T08:47:38.465Z,23.13
2023-04-28T08:50:07.517Z,21.15
2023-04-28T08:52:35.636Z,23.88
2023-04-28T08:55:08.007Z,20.80
2023-04-28T08:57:44.878Z,21.48
2023-04-28T09:00:12.848Z,22.23
2023-04-28T09:02:42.513Z,22.15
2023-04-28T09:05:12.616Z,22.83
2023-04-28T09:07:58.995Z,22.65
2023-04-28T09:13:10.876Z,23.27
2023-04-28T09:15:41.485Z,20.83
2023-04-28T09:18:11.606Z,22.70
2023-04-28T09:20:38.426Z,23.90
2023-04-28T09:26:03.983Z,25.77
2023-04-28T09:28:32.402Z,25.50
2023-04-28T09:31:27.930Z,25.45
2023-04-28T09:34:13.915Z,27.35
2023-04-28T09:36:41.255Z,26.80
2023-04-28T09:39:08.046Z,25.85
2023-04-28T09:41:42.466Z,26.27
2023-04-28T09:44:15.795Z,26.30
2023-04-28T09:46:46.684Z,25.10
2023-04-28T09:49:14.472Z,25.80
2023-04-28T09:51:41.686Z,26.85
2023-04-28T09:54:08.500Z,24.52
2023-04-28T09:56:41.051Z,26.05
2023-04-28T09:59:08.258Z,23.48
2023-04-28T10:01:53.944Z,24.40
2023-04-28T10:04:21.527Z,26.27
2023-04-28T10:09:33.365Z,25.38
2023-04-28T10:12:20.512Z,26.45
2023-04-28T10:14:54.440Z,27.52
2023-04-28T10:17:40.128Z,27.20
2023-04-28T10:20:08.796Z,27.08
2023-04-28T10:22:45.407Z,22.65
2023-04-28T10:25:12.197Z,25.13
2023-04-28T10:27:40.552Z,25.95
2023-04-28T10:30:22.810Z,24.95
2023-04-28T10:33:14.939Z,23.00
2023-04-28T10:35:44.745Z,22.65
2023-04-28T10:38:14.872Z,25.77
2023-04-28T10:40:43.703Z,27.25
2023-04-28T10:43:12.399Z,25.13
2023-04-28T10:45:56.645Z,25.30
2023-04-28T10:48:47.005Z,26.95
2023-04-28T10:51:16.713Z,26.00
2023-04-28T10:53:44.102Z,28.25
2023-04-28T10:56:24.919Z,24.60
2023-04-28T10:58:56.534Z,24.52
2023-04-28T11:01:42.575Z,24.48
2023-04-28T11:04:28.674Z,24.52
2023-04-28T11:07:14.010Z,22.90
2023-04-28T11:09:59.919Z,25.50
2023-04-28T11:12:27.801Z,24.55
2023-04-28T11:14:54.558Z,23.92
2023-04-28T11:17:41.194Z,23.85
2023-04-28T11:20:13.369Z,28.15
2023-04-28T11:22:41.104Z,25.02
2023-04-28T11:25:08.259Z,25.83
2023-04-28T11:27:35.085Z,26.05
2023-04-28T11:30:02.099Z,24.27
2023-04-28T11:32:31.507Z,24.13
2023-04-28T11:34:58.434Z,26.10
2023-04-28T11:37:25.545Z,23.10
2023-04-28T11:39:52.762Z,24.48
2023-04-28T11:42:19.663Z,24.35
2023-04-28T11:44:53.944Z,24.58
2023-04-28T11:47:31.580Z,25.38
2023-04-28T11:49:58.843Z,25.77
2023-04-28T11:52:27.397Z,24.42
2023-04-28T11:54:56.610Z,26.67
2023-04-28T11:57:23.862Z,24.83
2023-04-28T11:59:51.373Z,28.42
2023-04-28T12:02:29.710Z,25.73
2023-04-28T12:04:57.312Z,25.40
2023-04-28T12:07:24.673Z,28.15
2023-04-28T12:10:10.962Z,26.25
2023-04-28T12:15:08.704Z,25.35
2023-04-28T12:17:41.532Z,24.23
2023-04-28T12:20:10.983Z,26.73
2023-04-28T12:22:49.178Z,24.00
2023-04-28T12:25:19.806Z,24.42
2023-04-28T12:28:07.850Z,22.77
2023-04-28T12:30:38.989Z,25.00
2023-04-28T12:33:06.123Z,25.13
2023-04-28T12:35:51.852Z,26.30
2023-04-28T12:38:19.000Z,25.80
2023-04-28T12:40:46.677Z,23.48
2023-04-28T12:43:14.735Z,24.08
2023-04-28T12:45:41.975Z,23.80
2023-04-28T12:48:08.787Z,24.30
2023-04-28T12:50:35.774Z,25.10
2023-04-28T12:53:02.577Z,23.10
2023-04-28T12:55:29.646Z,26.88
2023-04-28T12:58:14.725Z,22.75
2023-04-28T13:00:42.003Z,24.42
2023-04-28T13:03:09.000Z,22.58
2023-04-28T13:05:36.292Z,23.33
2023-04-28T13:08:03.353Z,25.25
2023-04-28T13:10:30.234Z,22.55
2023-04-28T13:12:57.048Z,21.77
2023-04-28T13:15:23.841Z,20.85
2023-04-28T13:17:50.761Z,23.33
2023-04-28T13:20:17.640Z,23.42
2023-04-28T13:22:44.473Z,22.27
2023-04-28T13:25:11.701Z,22.45
2023-04-28T13:27:39.191Z,22.70
2023-04-28T13:30:26.070Z,24.15
2023-04-28T13:32:53.520Z,20.95
2023-04-28T13:35:39.851Z,24.90
2023-04-28T13:38:07.005Z,22.85
2023-04-28T13:40:34.638Z,25.90
2023-04-28T13:43:01.424Z,13.90
2023-04-28T13:45:28.730Z,5.47
2023-04-28T13:47:55.651Z,4.70
2023-04-28T13:50:22.471Z,5.18
2023-04-28T13:52:49.268Z,4.75
2023-04-28T13:55:16.285Z,4.50
2023-04-28T13:57:43.177Z,4.50
2023-04-28T14:00:10.667Z,4.45
2023-04-28T14:02:39.593Z,4.22
2023-04-28T14:05:26.076Z,5.63
2023-04-28T14:08:12.262Z,4.78
2023-04-28T14:10:39.104Z,4.38
2023-04-28T14:13:06.278Z,3.45
2023-04-28T14:15:33.353Z,4.05
2023-04-28T14:18:00.309Z,3.80
2023-04-28T14:20:27.963Z,3.42
2023-04-28T14:22:55.002Z,3.97
2023-04-28T14:25:21.970Z,3.45
2023-04-28T14:27:52.604Z,3.80
2023-04-28T14:30:20.482Z,3.83
2023-04-28T14:32:47.639Z,4.57
2023-04-28T14:35:15.594Z,8.85
2023-04-28T14:37:43.210Z,9.15
2023-04-28T14:40:10.822Z,9.25
2023-04-28T14:42:37.797Z,10.30
2023-04-28T14:45:07.150Z,7.82
2023-04-28T14:47:34.153Z,8.30
2023-04-28T14:50:01.033Z,8.45
2023-04-28T14:52:29.139Z,8.57
2023-04-28T14:54:56.993Z,9.70
2023-04-28T14:57:24.809Z,9.30
2023-04-28T14:59:52.308Z,8.93
2023-04-28T15:02:21.590Z,10.68
2023-04-28T15:04:49.120Z,11.55
2023-04-28T15:07:16.021Z,12.38
2023-04-28T15:09:43.925Z,11.57
2023-04-28T15:12:10.862Z,11.77
2023-04-28T15:14:37.671Z,16.08
2023-04-28T15:17:04.634Z,15.15
2023-04-28T15:19:31.748Z,16.25
2023-04-28T15:21:58.630Z,16.25
2023-04-28T15:24:25.583Z,15.63
2023-04-28T15:26:52.701Z,15.75
2023-04-28T15:29:19.554Z,14.63
2023-04-28T15:31:46.558Z,14.73
2023-04-28T15:34:13.935Z,17.40
2023-04-28T15:36:41.274Z,17.73
2023-04-28T15:39:26.709Z,15.50
2023-04-28T15:41:53.529Z,17.05
2023-04-28T15:44:20.336Z,15.88
2023-04-28T15:46:52.133Z,13.90
2023-04-28T15:49:19.054Z,13.45
2023-04-28T15:51:45.852Z,15.90
2023-04-28T15:54:31.203Z,15.88
2023-04-28T15:56:58.014Z,14.65
2023-04-28T15:59:24.856Z,14.93
2023-04-28T16:02:10.051Z,13.18
2023-04-28T16:07:22.396Z,12.38
2023-04-28T16:09:49.358Z,15.35
2023-04-28T16:12:16.137Z,13.38
2023-04-28T16:14:43.077Z,12.63
2023-04-28T16:17:10.269Z,11.57
2023-04-28T16:19:37.221Z,13.00
2023-04-28T16:22:04.006Z,10.73
2023-04-28T16:24:32.376Z,3.20
2023-04-28T16:26:59.283Z,1.90
2023-04-28T16:29:26.552Z,1.40
2023-04-28T16:31:53.622Z,1.42
2023-04-28T16:34:20.591Z,1.75
2023-04-28T16:36:47.405Z,1.45
2023-04-28T16:39:15.252Z,0.90
2023-04-28T16:41:42.015Z,0.73
2023-04-28T16:44:09.025Z,0.93
2023-04-28T16:46:35.798Z,1.17
2023-04-28T16:49:02.777Z,0.65
2023-04-28T16:51:29.545Z,1.00
2023-04-28T16:53:56.296Z,0.63
2023-04-28T16:56:23.141Z,1.27
2023-04-28T16:58:49.951Z,1.23
2023-04-28T17:01:16.828Z,0.80
2023-04-28T17:03:43.801Z,1.35
2023-04-28T17:06:11.348Z,1.30
2023-04-28T17:08:39.557Z,1.00
2023-04-28T17:11:06.712Z,0.95
2023-04-28T17:13:34.080Z,0.90
2023-04-28T17:16:01.246Z,0.73
2023-04-28T17:18:28.483Z,0.90
2023-04-28T17:20:56.227Z,0.82
2023-04-28T17:23:23.017Z,0.50
2023-04-28T17:25:49.804Z,0.85
2023-04-28T17:28:16.690Z,0.60
2023-04-28T17:30:47.109Z,0.95
2023-04-28T17:33:14.305Z,0.50
2023-04-28T17:35:41.078Z,1.15
2023-04-28T17:38:07.936Z,0.55
2023-04-28T17:40:34.763Z,0.80
2023-04-28T17:43:02.736Z,0.88
2023-04-28T17:45:29.763Z,1.13
2023-04-28T17:48:00.266Z,2.35
2023-04-28T17:50:27.205Z,2.55
2023-04-28T17:52:54.292Z,1.67
2023-04-28T17:55:21.175Z,1.88
2023-04-28T17:57:47.902Z,1.73
2023-04-28T18:00:15.054Z,0.98
2023-04-28T18:02:42.167Z,1.13
2023-04-28T18:05:27.717Z,1.10
2023-04-28T18:07:55.267Z,0.40
2023-04-28T18:10:22.060Z,0.93
2023-04-28T18:12:48.863Z,0.65
2023-04-28T18:15:15.832Z,0.68
2023-04-28T18:17:42.724Z,1.17
2023-04-28T18:20:10.029Z,1.40
2023-04-28T18:22:37.718Z,5.43
2023-04-28T18:25:04.903Z,9.45
2023-04-28T18:27:31.663Z,2.17
2023-04-28T18:29:58.363Z,3.67
2023-04-28T18:32:25.279Z,1.38
2023-04-28T18:34:52.447Z,1.67
2023-04-28T18:37:19.287Z,4.28
2023-04-28T18:39:46.064Z,4.95
2023-04-28T18:45:00.495Z,0.65
2023-04-28T18:47:27.331Z,21.48
2023-04-28T18:49:54.448Z,2.50
2023-04-28T18:52:21.255Z,1.50
2023-04-28T18:54:48.058Z,1.15
2023-04-28T18:57:17.234Z,3.65
2023-04-28T18:59:43.993Z,4.30
2023-04-28T19:02:10.893Z,1.80
2023-04-28T19:04:42.067Z,4.45
2023-04-28T19:07:09.002Z,1.48
2023-04-28T19:09:35.978Z,1.30
2023-04-28T19:12:02.801Z,3.00
2023-04-28T19:14:29.636Z,1.15
2023-04-28T19:16:56.433Z,1.85
2023-04-28T19:22:35.980Z,0.88
2023-04-28T19:25:04.300Z,1.02
2023-04-28T19:27:32.447Z,1.80
2023-04-28T19:29:59.980Z,2.05
2023-04-28T19:32:27.369Z,2.65
2023-04-28T19:34:54.977Z,1.10
2023-04-28T19:37:22.643Z,0.82
2023-04-28T19:39:51.082Z,2.40
2023-04-28T19:42:18.445Z,1.17
2023-04-28T19:44:46.771Z,0.90
2023-04-28T19:47:13.618Z,3.85
2023-04-28T19:49:43.538Z,0.82
2023-04-28T19:52:10.395Z,1.20
2023-04-28T19:54:38.831Z,0.90
2023-04-28T19:57:05.820Z,0.60
2023-04-28T19:59:32.635Z,0.93
2023-04-28T20:02:00.145Z,1.08
2023-04-28T20:04:29.184Z,0.60
2023-04-28T20:06:56.325Z,1.00
2023-04-28T20:09:23.162Z,0.90
2023-04-28T20:11:50.031Z,2.83
2023-04-28T20:14:16.863Z,2.25
2023-04-28T20:16:44.570Z,1.27
2023-04-28T20:19:11.652Z,1.83
2023-04-28T20:21:39.561Z,1.15
2023-04-28T20:24:07.217Z,1.35
2023-04-28T20:26:34.525Z,1.35
2023-04-28T20:29:01.308Z,1.27
2023-04-28T20:31:28.156Z,1.30
2023-04-28T20:33:55.157Z,1.98
2023-04-28T20:36:21.940Z,0.93
2023-04-28T20:38:49.191Z,0.75
2023-04-28T20:41:16.332Z,1.83
2023-04-28T20:43:43.296Z,1.45
2023-04-28T20:46:12.673Z,3.17
2023-04-28T20:48:40.278Z,6.30
2023-04-28T20:51:07.569Z,1.40
2023-04-28T20:53:34.389Z,1.67
2023-04-28T20:56:01.564Z,2.75
2023-04-28T20:58:28.351Z,1.85
2023-04-28T21:00:55.115Z,1.67
2023-04-28T21:03:41.435Z,1.30
2023-04-28T21:08:52.992Z,1.40
2023-04-28T21:11:19.988Z,0.97
2023-04-28T21:13:46.818Z,1.95
2023-04-28T21:16:17.101Z,2.00
2023-04-28T21:18:47.243Z,2.17
2023-04-28T21:21:14.415Z,2.83
2023-04-28T21:23:41.316Z,1.63
2023-04-28T21:26:08.504Z,4.68
2023-04-28T21:28:36.689Z,1.47
2023-04-28T21:31:05.018Z,1.15
2023-04-28T21:33:32.360Z,3.33
2023-04-28T21:36:03.469Z,1.33
2023-04-28T21:38:30.255Z,1.53
2023-04-28T21:40:57.003Z,1.17
2023-04-28T21:43:24.196Z,1.17
2023-04-28T21:45:52.252Z,0.97
2023-04-28T21:48:19.287Z,1.20
2023-04-28T21:50:47.335Z,1.57
2023-04-28T21:53:14.143Z,0.50
2023-04-28T21:55:41.538Z,0.90
2023-04-28T21:58:08.321Z,0.53
2023-04-28T22:00:39.610Z,1.05
2023-04-28T22:03:06.656Z,0.90
2023-04-28T22:05:34.236Z,1.02
2023-04-28T22:08:19.791Z,1.13
2023-04-28T22:10:46.773Z,1.10
2023-04-28T22:13:14.357Z,0.60
2023-04-28T22:15:42.714Z,0.90
2023-04-28T22:18:09.618Z,0.80
2023-04-28T22:20:36.790Z,1.27
2023-04-28T22:23:03.610Z,0.93
2023-04-28T22:25:30.464Z,1.47
2023-04-28T22:27:57.414Z,1.20
2023-04-28T22:30:25.973Z,0.93
2023-04-28T22:32:53.539Z,1.70
2023-04-28T22:35:20.428Z,1.05
2023-04-28T22:37:47.177Z,0.90
2023-04-28T22:40:14.255Z,1.03
2023-04-28T22:42:42.204Z,1.27
2023-04-28T22:45:10.649Z,1.03
2023-04-28T22:47:39.193Z,1.63
2023-04-28T22:50:08.098Z,0.70
2023-04-28T22:52:35.394Z,1.00
2023-04-28T22:55:02.201Z,1.30
2023-04-28T22:57:29.042Z,2.00
2023-04-28T22:59:56.036Z,0.87
2023-04-28T23:02:23.239Z,1.20
2023-04-28T23:04:50.547Z,0.93
2023-04-28T23:07:17.506Z,1.47
2023-04-28T23:09:44.471Z,0.80
2023-04-28T23:12:11.410Z,0.70
2023-04-28T23:14:38.304Z,1.70
2023-04-28T23:17:24.619Z,1.00
2023-04-28T23:19:51.721Z,1.17
2023-04-28T23:22:18.991Z,0.70
2023-04-28T23:24:45.912Z,1.03
2023-04-28T23:27:12.773Z,0.97
2023-04-28T23:29:39.520Z,1.40
2023-04-28T23:32:06.439Z,1.37
2023-04-28T23:34:33.334Z,1.07
2023-04-28T23:37:00.095Z,1.63
2023-04-28T23:39:29.964Z,1.00
2023-04-28T23:41:56.821Z,1.20
2023-04-28T23:44:23.576Z,1.07
2023-04-28T23:46:50.524Z,1.37
2023-04-28T23:49:17.339Z,1.40
2023-04-28T23:51:44.134Z,1.57
2023-04-28T23:54:11.757Z,1.30
2023-04-28T23:56:38.565Z,1.57
2023-04-28T23:59:05.490Z,1.93
